sensor_id;sensor_type;location;lat;lon;timestamp;temperature;humidity
3868;DHT22;1949;48.152;11.528;2022-12-07T00:01:44;10.00;47.30
3868;DHT22;1949;48.152;11.528;2022-12-07T00:04:14;10.00;47.50
3868;DHT22;1949;48.152;11.528;2022-12-07T00:06:47;10.00;47.30
3868;DHT22;1949;48.152;11.528;2022-12-07T00:09:18;10.00;47.40
3868;DHT22;1949;48.152;11.528;2022-12-07T00:11:51;9.90;48.30
3868;DHT22;1949;48.152;11.528;2022-12-07T00:14:18;10.00;47.50
3868;DHT22;1949;48.152;11.528;2022-12-07T00:16:45;10.00;47.40
3868;DHT22;1949;48.152;11.528;2022-12-07T00:19:12;10.00;47.40
3868;DHT22;1949;48.152;11.528;2022-12-07T00:21:38;10.00;47.40
3868;DHT22;1949;48.152;11.528;2022-12-07T00:24:06;10.00;47.40
3868;DHT22;1949;48.152;11.528;2022-12-07T00:26:34;10.00;47.40
3868;DHT22;1949;48.152;11.528;2022-12-07T00:29:03;9.90;48.30
3868;DHT22;1949;48.152;11.528;2022-12-07T00:31:37;9.90;48.30
3868;DHT22;1949;48.152;11.528;2022-12-07T00:34:13;9.90;48.30
3868;DHT22;1949;48.152;11.528;2022-12-07T00:36:40;9.90;48.30
3868;DHT22;1949;48.152;11.528;2022-12-07T00:39:05;9.90;48.30
3868;DHT22;1949;48.152;11.528;2022-12-07T00:41:35;10.00;47.40
3868;DHT22;1949;48.152;11.528;2022-12-07T00:44:01;10.00;47.40
3868;DHT22;1949;48.152;11.528;2022-12-07T00:46:29;10.00;47.40
3868;DHT22;1949;48.152;11.528;2022-12-07T00:48:59;10.00;47.40
3868;DHT22;1949;48.152;11.528;2022-12-07T00:51:25;10.00;47.40
3868;DHT22;1949;48.152;11.528;2022-12-07T00:53:51;10.00;47.40
3868;DHT22;1949;48.152;11.528;2022-12-07T00:56:25;10.00;47.40
3868;DHT22;1949;48.152;11.528;2022-12-07T00:59:03;10.00;47.30
3868;DHT22;1949;48.152;11.528;2022-12-07T01:01:33;10.00;47.30
3868;DHT22;1949;48.152;11.528;2022-12-07T01:04:00;10.00;47.30
3868;DHT22;1949;48.152;11.528;2022-12-07T01:06:29;10.00;47.40
3868;DHT22;1949;48.152;11.528;2022-12-07T01:08:55;10.00;47.30
3868;DHT22;1949;48.152;11.528;2022-12-07T01:11:25;10.00;47.30
3868;DHT22;1949;48.152;11.528;2022-12-07T01:13:54;10.00;47.30
3868;DHT22;1949;48.152;11.528;2022-12-07T01:16:22;10.00;47.30
3868;DHT22;1949;48.152;11.528;2022-12-07T01:18:50;10.10;47.40
3868;DHT22;1949;48.152;11.528;2022-12-07T01:21:19;10.00;47.30
3868;DHT22;1949;48.152;11.528;2022-12-07T01:23:49;10.00;47.30
3868;DHT22;1949;48.152;11.528;2022-12-07T01:26:18;9.90;48.20
3868;DHT22;1949;48.152;11.528;2022-12-07T01:28:44;9.90;48.20
3868;DHT22;1949;48.152;11.528;2022-12-07T01:31:14;9.90;48.20
3868;DHT22;1949;48.152;11.528;2022-12-07T01:33:42;9.90;48.20
3868;DHT22;1949;48.152;11.528;2022-12-07T01:36:17;10.00;47.30
3868;DHT22;1949;48.152;11.528;2022-12-07T01:38:44;9.90;48.20
3868;DHT22;1949;48.152;11.528;2022-12-07T01:41:11;9.90;48.20
3868;DHT22;1949;48.152;11.528;2022-12-07T01:47:03;10.00;47.30
3868;DHT22;1949;48.152;11.528;2022-12-07T01:49:48;9.90;48.10
3868;DHT22;1949;48.152;11.528;2022-12-07T01:52:29;9.90;48.10
3868;DHT22;1949;48.152;11.528;2022-12-07T01:55:06;9.90;48.10
3868;DHT22;1949;48.152;11.528;2022-12-07T01:57:36;9.90;48.10
3868;DHT22;1949;48.152;11.528;2022-12-07T02:00:05;9.90;48.10
3868;DHT22;1949;48.152;11.528;2022-12-07T02:02:37;9.90;48.20
3868;DHT22;1949;48.152;11.528;2022-12-07T02:05:07;9.90;48.10
3868;DHT22;1949;48.152;11.528;2022-12-07T02:07:36;9.90;48.20
3868;DHT22;1949;48.152;11.528;2022-12-07T02:10:22;9.90;48.20
3868;DHT22;1949;48.152;11.528;2022-12-07T02:12:56;9.90;48.20
3868;DHT22;1949;48.152;11.528;2022-12-07T02:16:09;9.90;48.20
3868;DHT22;1949;48.152;11.528;2022-12-07T02:21:46;9.90;48.20
3868;DHT22;1949;48.152;11.528;2022-12-07T02:27:33;9.90;48.10
3868;DHT22;1949;48.152;11.528;2022-12-07T02:30:19;9.90;48.30
3868;DHT22;1949;48.152;11.528;2022-12-07T02:33:03;9.90;48.30
3868;DHT22;1949;48.152;11.528;2022-12-07T02:35:46;9.90;48.30
3868;DHT22;1949;48.152;11.528;2022-12-07T02:38:20;9.90;48.20
3868;DHT22;1949;48.152;11.528;2022-12-07T02:43:47;9.90;48.20
3868;DHT22;1949;48.152;11.528;2022-12-07T02:49:18;9.90;48.20
3868;DHT22;1949;48.152;11.528;2022-12-07T02:51:46;9.90;48.20
3868;DHT22;1949;48.152;11.528;2022-12-07T02:54:17;9.90;48.30
3868;DHT22;1949;48.152;11.528;2022-12-07T02:56:53;9.90;48.30
3868;DHT22;1949;48.152;11.528;2022-12-07T03:07:14;9.90;48.30
3868;DHT22;1949;48.152;11.528;2022-12-07T03:09:53;9.90;48.30
3868;DHT22;1949;48.152;11.528;2022-12-07T03:12:29;9.90;48.20
3868;DHT22;1949;48.152;11.528;2022-12-07T03:15:21;10.00;47.40
3868;DHT22;1949;48.152;11.528;2022-12-07T03:17:49;10.00;47.40
3868;DHT22;1949;48.152;11.528;2022-12-07T03:20:19;10.00;47.40
3868;DHT22;1949;48.152;11.528;2022-12-07T03:22:47;10.00;47.40
3868;DHT22;1949;48.152;11.528;2022-12-07T03:25:15;10.00;47.30
3868;DHT22;1949;48.152;11.528;2022-12-07T03:28:03;10.00;47.30
3868;DHT22;1949;48.152;11.528;2022-12-07T03:30:46;10.00;47.20
3868;DHT22;1949;48.152;11.528;2022-12-07T03:33:20;10.00;47.20
3868;DHT22;1949;48.152;11.528;2022-12-07T03:36:14;10.00;47.30
3868;DHT22;1949;48.152;11.528;2022-12-07T03:39:00;10.00;47.80
3868;DHT22;1949;48.152;11.528;2022-12-07T03:41:32;10.00;47.20
3868;DHT22;1949;48.152;11.528;2022-12-07T03:44:00;10.00;47.90
3868;DHT22;1949;48.152;11.528;2022-12-07T03:54:50;9.90;48.10
3868;DHT22;1949;48.152;11.528;2022-12-07T03:57:18;9.90;48.10
3868;DHT22;1949;48.152;11.528;2022-12-07T03:59:45;9.90;48.10
3868;DHT22;1949;48.152;11.528;2022-12-07T04:02:13;9.90;48.20
3868;DHT22;1949;48.152;11.528;2022-12-07T04:04:39;9.90;48.10
3868;DHT22;1949;48.152;11.528;2022-12-07T04:07:05;9.90;48.10
3868;DHT22;1949;48.152;11.528;2022-12-07T04:09:31;10.00;47.30
3868;DHT22;1949;48.152;11.528;2022-12-07T04:11:56;9.90;48.10
3868;DHT22;1949;48.152;11.528;2022-12-07T04:14:22;9.90;48.20
3868;DHT22;1949;48.152;11.528;2022-12-07T04:16:54;9.90;48.30
3868;DHT22;1949;48.152;11.528;2022-12-07T04:19:24;9.90;48.20
3868;DHT22;1949;48.152;11.528;2022-12-07T04:21:50;9.90;48.20
3868;DHT22;1949;48.152;11.528;2022-12-07T04:24:17;9.90;48.30
3868;DHT22;1949;48.152;11.528;2022-12-07T04:26:44;9.90;48.20
3868;DHT22;1949;48.152;11.528;2022-12-07T04:29:09;9.90;48.20
3868;DHT22;1949;48.152;11.528;2022-12-07T04:31:36;9.90;48.20
3868;DHT22;1949;48.152;11.528;2022-12-07T04:34:02;9.90;48.30
3868;DHT22;1949;48.152;11.528;2022-12-07T04:36:28;10.00;47.50
3868;DHT22;1949;48.152;11.528;2022-12-07T04:38:54;9.90;48.20
3868;DHT22;1949;48.152;11.528;2022-12-07T04:41:22;9.90;48.30
3868;DHT22;1949;48.152;11.528;2022-12-07T04:44:03;9.90;48.20
3868;DHT22;1949;48.152;11.528;2022-12-07T04:46:31;9.80;48.80
3868;DHT22;1949;48.152;11.528;2022-12-07T04:48:58;9.80;48.30
3868;DHT22;1949;48.152;11.528;2022-12-07T04:51:29;9.90;48.30
3868;DHT22;1949;48.152;11.528;2022-12-07T04:53:55;9.80;48.30
3868;DHT22;1949;48.152;11.528;2022-12-07T04:56:23;9.80;48.30
3868;DHT22;1949;48.152;11.528;2022-12-07T04:58:51;9.80;48.30
3868;DHT22;1949;48.152;11.528;2022-12-07T05:01:18;9.80;48.40
3868;DHT22;1949;48.152;11.528;2022-12-07T05:03:44;9.80;48.40
3868;DHT22;1949;48.152;11.528;2022-12-07T05:06:10;9.70;48.30
3868;DHT22;1949;48.152;11.528;2022-12-07T05:08:37;9.80;48.40
3868;DHT22;1949;48.152;11.528;2022-12-07T05:11:04;9.80;48.50
3868;DHT22;1949;48.152;11.528;2022-12-07T05:13:32;9.70;48.40
3868;DHT22;1949;48.152;11.528;2022-12-07T05:15:59;9.70;48.50
3868;DHT22;1949;48.152;11.528;2022-12-07T05:18:26;9.70;48.50
3868;DHT22;1949;48.152;11.528;2022-12-07T05:20:52;9.70;48.50
3868;DHT22;1949;48.152;11.528;2022-12-07T05:23:18;9.70;48.50
3868;DHT22;1949;48.152;11.528;2022-12-07T05:25:45;9.70;48.50
3868;DHT22;1949;48.152;11.528;2022-12-07T05:28:11;9.60;48.30
3868;DHT22;1949;48.152;11.528;2022-12-07T05:30:36;9.60;48.50
3868;DHT22;1949;48.152;11.528;2022-12-07T05:33:03;9.60;48.50
3868;DHT22;1949;48.152;11.528;2022-12-07T05:35:30;9.70;48.60
3868;DHT22;1949;48.152;11.528;2022-12-07T05:37:56;9.70;48.60
3868;DHT22;1949;48.152;11.528;2022-12-07T05:40:23;9.60;48.40
3868;DHT22;1949;48.152;11.528;2022-12-07T05:42:49;9.60;48.50
3868;DHT22;1949;48.152;11.528;2022-12-07T05:45:18;9.60;48.50
3868;DHT22;1949;48.152;11.528;2022-12-07T05:47:43;9.60;48.60
3868;DHT22;1949;48.152;11.528;2022-12-07T05:50:09;9.50;48.50
3868;DHT22;1949;48.152;11.528;2022-12-07T05:52:41;9.50;48.50
3868;DHT22;1949;48.152;11.528;2022-12-07T05:55:07;9.60;48.70
3868;DHT22;1949;48.152;11.528;2022-12-07T05:57:33;9.50;48.50
3868;DHT22;1949;48.152;11.528;2022-12-07T06:00:06;9.50;48.50
3868;DHT22;1949;48.152;11.528;2022-12-07T06:02:35;9.50;48.50
3868;DHT22;1949;48.152;11.528;2022-12-07T06:05:00;9.50;48.50
3868;DHT22;1949;48.152;11.528;2022-12-07T06:07:26;9.50;48.60
3868;DHT22;1949;48.152;11.528;2022-12-07T06:09:52;9.50;48.60
3868;DHT22;1949;48.152;11.528;2022-12-07T06:12:27;9.50;48.50
3868;DHT22;1949;48.152;11.528;2022-12-07T06:14:59;9.50;48.50
3868;DHT22;1949;48.152;11.528;2022-12-07T06:17:26;9.50;48.60
3868;DHT22;1949;48.152;11.528;2022-12-07T06:19:55;9.50;48.70
3868;DHT22;1949;48.152;11.528;2022-12-07T06:22:21;9.50;48.70
3868;DHT22;1949;48.152;11.528;2022-12-07T06:24:47;9.60;48.70
3868;DHT22;1949;48.152;11.528;2022-12-07T06:27:14;9.60;48.70
3868;DHT22;1949;48.152;11.528;2022-12-07T06:29:40;9.60;48.50
3868;DHT22;1949;48.152;11.528;2022-12-07T06:32:06;9.70;48.60
3868;DHT22;1949;48.152;11.528;2022-12-07T06:34:32;9.50;48.50
3868;DHT22;1949;48.152;11.528;2022-12-07T06:36:58;9.60;48.70
3868;DHT22;1949;48.152;11.528;2022-12-07T06:39:26;9.60;48.60
3868;DHT22;1949;48.152;11.528;2022-12-07T06:41:52;9.60;48.60
3868;DHT22;1949;48.152;11.528;2022-12-07T06:44:19;9.60;48.60
3868;DHT22;1949;48.152;11.528;2022-12-07T06:46:46;9.60;48.70
3868;DHT22;1949;48.152;11.528;2022-12-07T06:49:17;9.60;48.70
3868;DHT22;1949;48.152;11.528;2022-12-07T06:51:45;9.60;48.50
3868;DHT22;1949;48.152;11.528;2022-12-07T06:54:12;9.70;48.60
3868;DHT22;1949;48.152;11.528;2022-12-07T06:56:39;9.70;48.60
3868;DHT22;1949;48.152;11.528;2022-12-07T06:59:06;9.70;48.60
3868;DHT22;1949;48.152;11.528;2022-12-07T07:01:34;9.70;48.60
3868;DHT22;1949;48.152;11.528;2022-12-07T07:04:00;9.70;48.50
3868;DHT22;1949;48.152;11.528;2022-12-07T07:06:27;9.70;48.50
3868;DHT22;1949;48.152;11.528;2022-12-07T07:08:53;9.70;48.50
3868;DHT22;1949;48.152;11.528;2022-12-07T07:11:19;9.70;48.40
3868;DHT22;1949;48.152;11.528;2022-12-07T07:13:45;9.70;48.50
3868;DHT22;1949;48.152;11.528;2022-12-07T07:16:12;9.70;48.50
3868;DHT22;1949;48.152;11.528;2022-12-07T07:18:38;9.70;48.50
3868;DHT22;1949;48.152;11.528;2022-12-07T07:21:07;9.70;48.30
3868;DHT22;1949;48.152;11.528;2022-12-07T07:23:33;9.70;48.60
3868;DHT22;1949;48.152;11.528;2022-12-07T07:26:00;9.70;48.50
3868;DHT22;1949;48.152;11.528;2022-12-07T07:28:25;9.60;48.20
3868;DHT22;1949;48.152;11.528;2022-12-07T07:30:52;9.60;48.20
3868;DHT22;1949;48.152;11.528;2022-12-07T07:33:20;9.60;48.40
3868;DHT22;1949;48.152;11.528;2022-12-07T07:35:46;9.60;48.30
3868;DHT22;1949;48.152;11.528;2022-12-07T07:38:11;9.50;48.20
3868;DHT22;1949;48.152;11.528;2022-12-07T07:40:37;9.40;48.30
3868;DHT22;1949;48.152;11.528;2022-12-07T07:43:03;9.40;48.40
3868;DHT22;1949;48.152;11.528;2022-12-07T07:45:28;9.40;48.40
3868;DHT22;1949;48.152;11.528;2022-12-07T07:47:55;9.40;48.40
3868;DHT22;1949;48.152;11.528;2022-12-07T07:50:21;9.40;48.20
3868;DHT22;1949;48.152;11.528;2022-12-07T07:52:49;9.30;48.30
3868;DHT22;1949;48.152;11.528;2022-12-07T07:55:24;9.30;48.30
3868;DHT22;1949;48.152;11.528;2022-12-07T07:57:51;9.20;48.30
3868;DHT22;1949;48.152;11.528;2022-12-07T08:00:17;9.20;48.40
3868;DHT22;1949;48.152;11.528;2022-12-07T08:02:44;9.20;48.50
3868;DHT22;1949;48.152;11.528;2022-12-07T08:05:13;9.20;48.70
3868;DHT22;1949;48.152;11.528;2022-12-07T08:07:39;9.20;48.50
3868;DHT22;1949;48.152;11.528;2022-12-07T08:10:06;9.20;48.50
3868;DHT22;1949;48.152;11.528;2022-12-07T08:12:38;9.20;48.60
3868;DHT22;1949;48.152;11.528;2022-12-07T08:15:26;9.20;48.50
3868;DHT22;1949;48.152;11.528;2022-12-07T08:17:52;9.20;48.50
3868;DHT22;1949;48.152;11.528;2022-12-07T08:20:20;9.20;48.60
3868;DHT22;1949;48.152;11.528;2022-12-07T08:22:47;9.20;48.70
3868;DHT22;1949;48.152;11.528;2022-12-07T08:25:12;9.20;48.50
3868;DHT22;1949;48.152;11.528;2022-12-07T08:27:38;9.20;48.70
3868;DHT22;1949;48.152;11.528;2022-12-07T08:30:11;9.20;48.70
3868;DHT22;1949;48.152;11.528;2022-12-07T08:32:37;9.20;48.80
3868;DHT22;1949;48.152;11.528;2022-12-07T08:35:03;9.20;48.70
3868;DHT22;1949;48.152;11.528;2022-12-07T08:37:28;9.30;48.60
3868;DHT22;1949;48.152;11.528;2022-12-07T08:39:57;9.30;48.50
3868;DHT22;1949;48.152;11.528;2022-12-07T08:42:23;9.20;48.50
3868;DHT22;1949;48.152;11.528;2022-12-07T08:44:53;9.20;48.60
3868;DHT22;1949;48.152;11.528;2022-12-07T08:47:20;9.30;48.60
3868;DHT22;1949;48.152;11.528;2022-12-07T08:49:53;9.30;48.60
3868;DHT22;1949;48.152;11.528;2022-12-07T08:52:22;9.30;48.60
3868;DHT22;1949;48.152;11.528;2022-12-07T08:54:48;9.30;49.20
3868;DHT22;1949;48.152;11.528;2022-12-07T08:57:14;9.30;48.50
3868;DHT22;1949;48.152;11.528;2022-12-07T08:59:40;9.30;48.40
3868;DHT22;1949;48.152;11.528;2022-12-07T09:02:06;9.20;48.40
3868;DHT22;1949;48.152;11.528;2022-12-07T09:04:31;9.30;48.60
3868;DHT22;1949;48.152;11.528;2022-12-07T09:06:57;9.30;48.50
3868;DHT22;1949;48.152;11.528;2022-12-07T09:09:24;9.30;48.70
3868;DHT22;1949;48.152;11.528;2022-12-07T09:11:49;9.30;48.60
3868;DHT22;1949;48.152;11.528;2022-12-07T09:14:15;9.30;48.50
3868;DHT22;1949;48.152;11.528;2022-12-07T09:16:42;9.20;48.30
3868;DHT22;1949;48.152;11.528;2022-12-07T09:19:08;9.20;48.30
3868;DHT22;1949;48.152;11.528;2022-12-07T09:21:34;9.20;48.30
3868;DHT22;1949;48.152;11.528;2022-12-07T09:23:59;9.20;48.40
3868;DHT22;1949;48.152;11.528;2022-12-07T09:26:25;9.20;48.50
3868;DHT22;1949;48.152;11.528;2022-12-07T09:28:51;9.20;48.50
3868;DHT22;1949;48.152;11.528;2022-12-07T09:31:18;9.30;48.60
3868;DHT22;1949;48.152;11.528;2022-12-07T09:33:44;9.30;48.30
3868;DHT22;1949;48.152;11.528;2022-12-07T09:36:10;9.40;48.50
3868;DHT22;1949;48.152;11.528;2022-12-07T09:38:38;9.40;48.40
3868;DHT22;1949;48.152;11.528;2022-12-07T09:41:06;9.40;48.30
3868;DHT22;1949;48.152;11.528;2022-12-07T09:43:34;9.40;48.20
3868;DHT22;1949;48.152;11.528;2022-12-07T09:46:00;9.40;48.30
3868;DHT22;1949;48.152;11.528;2022-12-07T09:48:36;9.40;48.10
3868;DHT22;1949;48.152;11.528;2022-12-07T09:51:09;9.40;48.10
3868;DHT22;1949;48.152;11.528;2022-12-07T09:53:38;9.40;48.40
3868;DHT22;1949;48.152;11.528;2022-12-07T09:56:05;9.50;48.50
3868;DHT22;1949;48.152;11.528;2022-12-07T09:58:32;9.50;48.50
3868;DHT22;1949;48.152;11.528;2022-12-07T10:03:36;9.60;48.30
3868;DHT22;1949;48.152;11.528;2022-12-07T10:06:04;9.70;48.30
3868;DHT22;1949;48.152;11.528;2022-12-07T10:08:31;9.70;48.10
3868;DHT22;1949;48.152;11.528;2022-12-07T10:10:58;9.70;48.10
3868;DHT22;1949;48.152;11.528;2022-12-07T10:13:39;9.70;48.20
3868;DHT22;1949;48.152;11.528;2022-12-07T10:16:06;9.70;48.20
3868;DHT22;1949;48.152;11.528;2022-12-07T10:18:41;9.70;48.10
3868;DHT22;1949;48.152;11.528;2022-12-07T10:21:26;9.70;48.00
3868;DHT22;1949;48.152;11.528;2022-12-07T10:29:33;9.70;48.30
3868;DHT22;1949;48.152;11.528;2022-12-07T10:32:48;9.70;48.20
3868;DHT22;1949;48.152;11.528;2022-12-07T10:34:52;9.70;48.10
3868;DHT22;1949;48.152;11.528;2022-12-07T10:37:41;9.70;47.70
3868;DHT22;1949;48.152;11.528;2022-12-07T10:40:31;9.70;47.70
3868;DHT22;1949;48.152;11.528;2022-12-07T10:55:23;9.50;47.80
3868;DHT22;1949;48.152;11.528;2022-12-07T11:00:19;9.50;47.80
3868;DHT22;1949;48.152;11.528;2022-12-07T11:05:49;9.60;47.80
3868;DHT22;1949;48.152;11.528;2022-12-07T11:08:52;9.60;47.60
3868;DHT22;1949;48.152;11.528;2022-12-07T11:17:00;9.70;47.80
3868;DHT22;1949;48.152;11.528;2022-12-07T11:19:42;9.80;48.00
3868;DHT22;1949;48.152;11.528;2022-12-07T11:25:24;10.00;46.90
3868;DHT22;1949;48.152;11.528;2022-12-07T11:33:47;10.30;46.50
3868;DHT22;1949;48.152;11.528;2022-12-07T11:39:06;10.30;46.10
3868;DHT22;1949;48.152;11.528;2022-12-07T11:41:37;10.30;46.20
3868;DHT22;1949;48.152;11.528;2022-12-07T11:47:35;10.30;46.20
3868;DHT22;1949;48.152;11.528;2022-12-07T11:50:33;10.40;46.30
3868;DHT22;1949;48.152;11.528;2022-12-07T11:53:14;10.40;46.30
3868;DHT22;1949;48.152;11.528;2022-12-07T11:56:12;10.40;46.20
3868;DHT22;1949;48.152;11.528;2022-12-07T11:58:48;10.40;46.10
3868;DHT22;1949;48.152;11.528;2022-12-07T12:03:56;10.40;45.80
3868;DHT22;1949;48.152;11.528;2022-12-07T12:06:25;10.40;45.80
3868;DHT22;1949;48.152;11.528;2022-12-07T12:09:04;10.40;45.60
3868;DHT22;1949;48.152;11.528;2022-12-07T12:19:42;10.50;45.50
3868;DHT22;1949;48.152;11.528;2022-12-07T12:22:19;10.60;45.50
3868;DHT22;1949;48.152;11.528;2022-12-07T12:24:51;10.50;45.30
3868;DHT22;1949;48.152;11.528;2022-12-07T12:27:25;10.50;45.10
3868;DHT22;1949;48.152;11.528;2022-12-07T12:29:59;10.40;45.00
3868;DHT22;1949;48.152;11.528;2022-12-07T12:32:42;10.40;45.20
3868;DHT22;1949;48.152;11.528;2022-12-07T12:35:35;10.50;45.40
3868;DHT22;1949;48.152;11.528;2022-12-07T12:38:31;10.40;45.20
3868;DHT22;1949;48.152;11.528;2022-12-07T12:41:02;10.40;45.20
3868;DHT22;1949;48.152;11.528;2022-12-07T12:43:44;10.50;45.30
3868;DHT22;1949;48.152;11.528;2022-12-07T12:54:35;10.30;45.20
3868;DHT22;1949;48.152;11.528;2022-12-07T12:57:15;10.30;45.10
3868;DHT22;1949;48.152;11.528;2022-12-07T12:59:59;10.40;45.10
3868;DHT22;1949;48.152;11.528;2022-12-07T13:02:29;10.30;45.10
3868;DHT22;1949;48.152;11.528;2022-12-07T13:13:00;10.40;45.10
3868;DHT22;1949;48.152;11.528;2022-12-07T13:15:39;10.50;45.10
3868;DHT22;1949;48.152;11.528;2022-12-07T13:29:14;10.60;45.00
3868;DHT22;1949;48.152;11.528;2022-12-07T13:31:49;10.60;44.90
3868;DHT22;1949;48.152;11.528;2022-12-07T13:34:40;10.60;44.90
3868;DHT22;1949;48.152;11.528;2022-12-07T13:37:27;10.60;44.90
3868;DHT22;1949;48.152;11.528;2022-12-07T13:39:59;10.60;44.90
3868;DHT22;1949;48.152;11.528;2022-12-07T13:42:26;10.60;44.80
3868;DHT22;1949;48.152;11.528;2022-12-07T13:44:52;10.60;44.80
3868;DHT22;1949;48.152;11.528;2022-12-07T13:47:43;10.60;44.70
3868;DHT22;1949;48.152;11.528;2022-12-07T13:52:55;10.60;44.80
3868;DHT22;1949;48.152;11.528;2022-12-07T13:55:21;10.50;44.70
3868;DHT22;1949;48.152;11.528;2022-12-07T13:57:53;10.50;44.70
3868;DHT22;1949;48.152;11.528;2022-12-07T14:00:23;10.50;44.70
3868;DHT22;1949;48.152;11.528;2022-12-07T14:05:40;10.50;44.70
3868;DHT22;1949;48.152;11.528;2022-12-07T14:08:22;10.50;44.70
3868;DHT22;1949;48.152;11.528;2022-12-07T14:13:33;10.50;44.80
3868;DHT22;1949;48.152;11.528;2022-12-07T14:18:51;10.50;44.70
3868;DHT22;1949;48.152;11.528;2022-12-07T14:21:19;10.50;44.70
3868;DHT22;1949;48.152;11.528;2022-12-07T14:24:15;10.50;44.60
3868;DHT22;1949;48.152;11.528;2022-12-07T14:26:48;10.50;44.50
3868;DHT22;1949;48.152;11.528;2022-12-07T14:31:53;10.50;44.30
3868;DHT22;1949;48.152;11.528;2022-12-07T14:34:20;10.40;44.10
3868;DHT22;1949;48.152;11.528;2022-12-07T14:36:47;10.40;44.20
3868;DHT22;1949;48.152;11.528;2022-12-07T14:39:12;10.40;44.00
3868;DHT22;1949;48.152;11.528;2022-12-07T14:41:38;10.30;44.00
3868;DHT22;1949;48.152;11.528;2022-12-07T14:44:17;10.30;44.10
3868;DHT22;1949;48.152;11.528;2022-12-07T14:46:43;10.30;44.20
3868;DHT22;1949;48.152;11.528;2022-12-07T14:49:11;10.30;44.10
3868;DHT22;1949;48.152;11.528;2022-12-07T14:51:39;10.30;44.10
3868;DHT22;1949;48.152;11.528;2022-12-07T14:54:11;10.40;44.10
3868;DHT22;1949;48.152;11.528;2022-12-07T14:56:39;10.40;44.10
3868;DHT22;1949;48.152;11.528;2022-12-07T14:59:07;10.40;44.10
3868;DHT22;1949;48.152;11.528;2022-12-07T15:01:37;10.40;44.00
3868;DHT22;1949;48.152;11.528;2022-12-07T15:04:03;10.40;44.00
3868;DHT22;1949;48.152;11.528;2022-12-07T15:06:32;10.40;44.00
3868;DHT22;1949;48.152;11.528;2022-12-07T15:08:58;10.40;44.00
3868;DHT22;1949;48.152;11.528;2022-12-07T15:11:24;10.40;44.00
3868;DHT22;1949;48.152;11.528;2022-12-07T15:13:52;10.40;43.90
3868;DHT22;1949;48.152;11.528;2022-12-07T15:16:34;10.40;43.90
3868;DHT22;1949;48.152;11.528;2022-12-07T15:19:00;10.40;43.90
3868;DHT22;1949;48.152;11.528;2022-12-07T15:21:26;10.50;44.00
3868;DHT22;1949;48.152;11.528;2022-12-07T15:23:54;10.40;43.90
3868;DHT22;1949;48.152;11.528;2022-12-07T15:26:19;10.40;43.90
3868;DHT22;1949;48.152;11.528;2022-12-07T15:28:46;10.40;44.00
3868;DHT22;1949;48.152;11.528;2022-12-07T15:31:16;10.40;43.90
3868;DHT22;1949;48.152;11.528;2022-12-07T15:33:43;10.40;43.90
3868;DHT22;1949;48.152;11.528;2022-12-07T15:36:22;10.40;43.90
3868;DHT22;1949;48.152;11.528;2022-12-07T15:38:50;10.40;43.90
3868;DHT22;1949;48.152;11.528;2022-12-07T15:41:17;10.50;44.00
3868;DHT22;1949;48.152;11.528;2022-12-07T15:43:43;10.50;44.00
3868;DHT22;1949;48.152;11.528;2022-12-07T15:46:32;10.50;44.00
3868;DHT22;1949;48.152;11.528;2022-12-07T15:48:58;10.50;44.00
3868;DHT22;1949;48.152;11.528;2022-12-07T15:51:26;10.50;44.10
3868;DHT22;1949;48.152;11.528;2022-12-07T15:53:54;10.50;44.10
3868;DHT22;1949;48.152;11.528;2022-12-07T15:56:20;10.50;44.10
3868;DHT22;1949;48.152;11.528;2022-12-07T15:58:51;10.50;44.10
3868;DHT22;1949;48.152;11.528;2022-12-07T16:01:18;10.50;44.10
3868;DHT22;1949;48.152;11.528;2022-12-07T16:03:45;10.50;44.10
3868;DHT22;1949;48.152;11.528;2022-12-07T16:06:15;10.60;44.20
3868;DHT22;1949;48.152;11.528;2022-12-07T16:08:45;10.50;44.10
3868;DHT22;1949;48.152;11.528;2022-12-07T16:11:12;10.50;44.10
3868;DHT22;1949;48.152;11.528;2022-12-07T16:13:38;10.60;44.30
3868;DHT22;1949;48.152;11.528;2022-12-07T16:16:07;10.60;44.20
3868;DHT22;1949;48.152;11.528;2022-12-07T16:18:35;10.60;44.20
3868;DHT22;1949;48.152;11.528;2022-12-07T16:21:02;10.50;44.10
3868;DHT22;1949;48.152;11.528;2022-12-07T16:23:29;10.60;44.20
3868;DHT22;1949;48.152;11.528;2022-12-07T16:25:55;10.60;44.20
3868;DHT22;1949;48.152;11.528;2022-12-07T16:28:29;10.60;44.10
3868;DHT22;1949;48.152;11.528;2022-12-07T16:31:13;10.60;44.10
3868;DHT22;1949;48.152;11.528;2022-12-07T16:33:41;10.60;44.10
3868;DHT22;1949;48.152;11.528;2022-12-07T16:36:09;10.60;44.10
3868;DHT22;1949;48.152;11.528;2022-12-07T16:38:37;10.50;44.00
3868;DHT22;1949;48.152;11.528;2022-12-07T16:41:05;10.50;43.90
3868;DHT22;1949;48.152;11.528;2022-12-07T16:43:31;10.50;43.90
3868;DHT22;1949;48.152;11.528;2022-12-07T16:45:59;10.50;43.90
3868;DHT22;1949;48.152;11.528;2022-12-07T16:48:24;10.40;43.80
3868;DHT22;1949;48.152;11.528;2022-12-07T16:50:50;10.40;43.90
3868;DHT22;1949;48.152;11.528;2022-12-07T16:53:19;10.40;43.90
3868;DHT22;1949;48.152;11.528;2022-12-07T16:55:46;10.40;44.00
3868;DHT22;1949;48.152;11.528;2022-12-07T16:58:13;10.40;44.00
3868;DHT22;1949;48.152;11.528;2022-12-07T17:00:41;10.40;44.00
3868;DHT22;1949;48.152;11.528;2022-12-07T17:03:07;10.40;44.00
3868;DHT22;1949;48.152;11.528;2022-12-07T17:05:38;10.40;44.00
3868;DHT22;1949;48.152;11.528;2022-12-07T17:08:04;10.40;44.00
3868;DHT22;1949;48.152;11.528;2022-12-07T17:10:37;10.40;44.00
3868;DHT22;1949;48.152;11.528;2022-12-07T17:13:04;10.40;44.00
3868;DHT22;1949;48.152;11.528;2022-12-07T17:16:00;10.30;43.80
3868;DHT22;1949;48.152;11.528;2022-12-07T17:18:31;10.30;43.90
3868;DHT22;1949;48.152;11.528;2022-12-07T17:21:05;10.30;43.90
3868;DHT22;1949;48.152;11.528;2022-12-07T17:23:34;10.30;43.90
3868;DHT22;1949;48.152;11.528;2022-12-07T17:26:22;10.30;43.90
3868;DHT22;1949;48.152;11.528;2022-12-07T17:28:48;10.30;43.90
3868;DHT22;1949;48.152;11.528;2022-12-07T17:31:16;10.30;44.00
3868;DHT22;1949;48.152;11.528;2022-12-07T17:33:43;10.30;43.90
3868;DHT22;1949;48.152;11.528;2022-12-07T17:38:40;10.40;44.00
3868;DHT22;1949;48.152;11.528;2022-12-07T17:41:28;10.40;44.00
3868;DHT22;1949;48.152;11.528;2022-12-07T17:44:16;10.40;43.90
3868;DHT22;1949;48.152;11.528;2022-12-07T17:46:46;10.30;43.60
3868;DHT22;1949;48.152;11.528;2022-12-07T17:49:18;10.30;43.60
3868;DHT22;1949;48.152;11.528;2022-12-07T17:51:44;10.20;43.60
3868;DHT22;1949;48.152;11.528;2022-12-07T17:54:29;10.10;43.60
3868;DHT22;1949;48.152;11.528;2022-12-07T17:56:55;10.00;43.50
3868;DHT22;1949;48.152;11.528;2022-12-07T17:59:21;9.90;44.50
3868;DHT22;1949;48.152;11.528;2022-12-07T18:01:47;9.90;44.70
3868;DHT22;1949;48.152;11.528;2022-12-07T18:04:14;9.80;44.70
3868;DHT22;1949;48.152;11.528;2022-12-07T18:06:42;9.80;44.90
3868;DHT22;1949;48.152;11.528;2022-12-07T18:09:08;9.80;44.90
3868;DHT22;1949;48.152;11.528;2022-12-07T18:11:42;9.80;44.70
3868;DHT22;1949;48.152;11.528;2022-12-07T18:14:08;9.80;44.80
3868;DHT22;1949;48.152;11.528;2022-12-07T18:16:34;9.80;44.90
3868;DHT22;1949;48.152;11.528;2022-12-07T18:19:04;9.80;45.00
3868;DHT22;1949;48.152;11.528;2022-12-07T18:21:31;9.80;45.00
3868;DHT22;1949;48.152;11.528;2022-12-07T18:23:59;9.80;45.00
3868;DHT22;1949;48.152;11.528;2022-12-07T18:26:30;9.90;45.00
3868;DHT22;1949;48.152;11.528;2022-12-07T18:28:58;9.90;44.90